Terminal Aerodrome Forecast
Issued by NWS Louisville, KY

Home | Current Version | Previous Version | Text Only | Print | Product List | Glossary On
Versions: 1 2 3 4 5 6 7 8 9 10 11 12 13 14 15 16 17
000
FTUS43 KLMK 182004 AAA
TAFSDF
TAF AMD
KSDF 182004Z 1820/1924 26006KT P6SM BKN018
      TEMPO 1820/1822 SCT018 BKN022
     FM182200 VRB04KT P6SM FEW025 BKN250
     FM192000 12007KT 3SM BR VCSH BKN015=

USA.gov is the U.S. government's official web portal to all federal, state and local government web resources and services.